Terminal Aerodrome Forecast
Issued by NWS Louisville, KY

Home | Current Version | Previous Version | Text Only | Print | Product List | Glossary On
Versions: 1 2 3 4 5 6 7 8 9 10 11 12 13 14 15 16
000
FTUS43 KLMK 142334
TAFBWG
TAF
KBWG 142334Z 1500/1524 18006KT P6SM SKC
     FM150900 20010KT P6SM SCT120
     FM151300 23015KT P6SM -SHRA OVC020
     FM151600 24015G17KT 6SM -SHRA OVC015
     FM152000 32010G19KT P6SM VCSH OVC025=

USA.gov is the U.S. government's official web portal to all federal, state and local government web resources and services.